Time,TemperatureF,DewpointF,PressureIn,WindDirection,WindDirectionDegrees,WindSpeedMPH,WindSpeedGustMPH,Humidity,HourlyPrecipIn,Conditions,Clouds,dailyrainin,SoftwareType,DateUTC
2013-01-02 00:02:00,34.1,33.3,30.02,SSW,205,6.0,19.0,97,0.00,,,0.00,Wunderground v.1.15,2013-01-02 06:02:00,
2013-01-02 00:07:00,34.1,33.3,30.02,WNW,300,20.0,20.0,97,0.00,,,0.00,Wunderground v.1.15,2013-01-02 06:07:00,
2013-01-02 00:12:00,33.9,33.1,30.02,WNW,284,13.0,19.0,97,0.00,,,0.00,Wunderground v.1.15,2013-01-02 06:12:00,
2013-01-02 00:17:00,33.9,33.1,30.02,WNW,287,11.0,19.0,97,0.00,,,0.00,Wunderground v.1.15,2013-01-02 06:17:00,
2013-01-02 00:23:00,33.9,33.1,30.02,NW,319,7.0,17.0,97,0.00,,,0.00,Wunderground v.1.15,2013-01-02 06:23:00,
2013-01-02 00:29:00,33.9,33.1,30.02,NW,325,11.0,17.0,97,0.00,,,0.00,Wunderground v.1.15,2013-01-02 06:29:00,
2013-01-02 00:35:00,33.9,33.1,30.02,NW,311,12.0,17.0,97,0.00,,,0.00,Wunderground v.1.15,2013-01-02 06:35:00,
2013-01-02 00:40:00,33.8,33.0,30.01,NW,304,15.0,15.0,97,0.00,,,0.00,Wunderground v.1.15,2013-01-02 06:40:00,
2013-01-02 00:46:00,33.6,32.8,30.01,WNW,302,18.0,19.0,97,0.00,,,0.00,Wunderground v.1.15,2013-01-02 06:46:00,
2013-01-02 00:51:00,33.7,32.9,30.01,NW,313,8.0,14.0,97,0.00,,,0.00,Wunderground v.1.15,2013-01-02 06:51:00,
2013-01-02 00:56:00,33.7,32.9,30.01,WNW,303,7.0,14.0,97,0.00,,,0.00,Wunderground v.1.15,2013-01-02 06:56:00,
2013-01-02 01:02:00,33.8,33.0,30.02,NW,304,17.0,17.0,97,0.00,,,0.00,Wunderground v.1.15,2013-01-02 07:02:00,
2013-01-02 01:08:00,33.8,33.0,30.03,WSW,250,1.0,17.0,97,0.00,,,0.00,Wunderground v.1.15,2013-01-02 07:08:00,
2013-01-02 01:13:00,33.7,32.9,30.02,WNW,288,6.0,12.0,97,0.00,,,0.00,Wunderground v.1.15,2013-01-02 07:13:00,
2013-01-02 01:19:00,33.6,32.8,30.02,NW,311,17.0,17.0,97,0.00,,,0.00,Wunderground v.1.15,2013-01-02 07:19:00,
2013-01-02 01:24:00,33.6,32.8,30.03,NW,324,5.0,14.0,97,0.00,,,0.00,Wunderground v.1.15,2013-01-02 07:24:00,
2013-01-02 01:29:00,33.5,32.7,30.03,WNW,292,3.0,17.0,97,0.00,,,0.00,Wunderground v.1.15,2013-01-02 07:29:00,
2013-01-02 01:35:00,33.5,32.7,30.03,NW,319,9.0,12.0,97,0.00,,,0.00,Wunderground v.1.15,2013-01-02 07:35:00,
2013-01-02 01:41:00,33.5,32.7,30.02,WNW,284,14.0,14.0,97,0.00,,,0.00,Wunderground v.1.15,2013-01-02 07:41:00,
2013-01-02 01:46:00,33.4,32.6,30.03,NNW,327,14.0,14.0,97,0.00,,,0.00,Wunderground v.1.15,2013-01-02 07:46:00,
2013-01-02 01:52:00,33.2,32.4,30.03,NNW,336,16.0,19.0,97,0.00,,,0.00,Wunderground v.1.15,2013-01-02 07:52:00,
2013-01-02 01:57:00,33.1,32.3,30.03,WNW,301,13.0,19.0,97,0.00,,,0.00,Wunderground v.1.15,2013-01-02 07:57:00,
2013-01-02 02:02:00,33.0,32.2,30.02,West,268,10.0,16.0,97,0.00,,,0.00,Wunderground v.1.15,2013-01-02 08:02:00,
2013-01-02 02:07:00,33.0,32.2,30.03,West,269,4.0,17.0,97,0.00,,,0.00,Wunderground v.1.15,2013-01-02 08:07:00,
2013-01-02 02:12:00,32.9,32.1,30.03,NW,313,17.0,19.0,97,0.00,,,0.00,Wunderground v.1.15,2013-01-02 08:12:00,
2013-01-02 02:17:00,32.8,32.0,30.04,NW,314,15.0,19.0,97,0.00,,,0.00,Wunderground v.1.15,2013-01-02 08:17:00,
2013-01-02 02:22:00,32.6,31.8,30.03,West,273,14.0,17.0,97,0.00,,,0.00,Wunderground v.1.15,2013-01-02 08:22:00,
2013-01-02 02:27:00,32.6,31.8,30.03,NW,313,16.0,19.0,97,0.00,,,0.00,Wunderground v.1.15,2013-01-02 08:27:00,
2013-01-02 02:32:00,32.6,31.8,30.03,WNW,302,12.0,15.0,97,0.00,,,0.00,Wunderground v.1.15,2013-01-02 08:32:00,
2013-01-02 02:37:00,32.7,31.9,30.03,WNW,295,18.0,22.0,97,0.00,,,0.00,Wunderground v.1.15,2013-01-02 08:37:00,
2013-01-02 02:42:00,32.6,31.8,30.04,WNW,300,11.0,19.0,97,0.00,,,0.00,Wunderground v.1.15,2013-01-02 08:42:00,
2013-01-02 02:47:00,32.6,31.8,30.03,NW,311,6.0,19.0,97,0.00,,,0.00,Wunderground v.1.15,2013-01-02 08:47:00,
2013-01-02 02:52:00,32.6,31.8,30.04,North,355,4.0,14.0,97,0.00,,,0.00,Wunderground v.1.15,2013-01-02 08:52:00,
2013-01-02 02:57:00,32.6,31.8,30.04,NW,305,8.0,16.0,97,0.00,,,0.00,Wunderground v.1.15,2013-01-02 08:57:00,
2013-01-02 03:02:00,32.5,31.7,30.04,WNW,296,16.0,18.0,97,0.00,,,0.00,Wunderground v.1.15,2013-01-02 09:02:00,
2013-01-02 03:07:00,32.5,31.7,30.03,NW,306,6.0,18.0,97,0.00,,,0.00,Wunderground v.1.15,2013-01-02 09:07:00,
2013-01-02 03:13:00,32.4,31.6,30.04,NW,304,12.0,18.0,97,0.00,,,0.00,Wunderground v.1.15,2013-01-02 09:13:00,
2013-01-02 03:18:00,32.4,31.6,30.03,NW,308,16.0,18.0,97,0.00,,,0.00,Wunderground v.1.15,2013-01-02 09:18:00,
2013-01-02 03:23:00,32.4,31.6,30.04,NW,310,19.0,20.0,97,0.00,,,0.00,Wunderground v.1.15,2013-01-02 09:23:00,
2013-01-02 03:28:00,32.3,31.5,30.03,WNW,293,9.0,21.0,97,0.00,,,0.00,Wunderground v.1.15,2013-01-02 09:28:00,
2013-01-02 03:33:00,32.1,31.3,30.04,NNW,335,9.0,22.0,97,0.00,,,0.00,Wunderground v.1.15,2013-01-02 09:33:00,
2013-01-02 03:38:00,32.0,31.2,30.03,NW,308,20.0,22.0,97,0.00,,,0.00,Wunderground v.1.15,2013-01-02 09:38:00,
2013-01-02 03:43:00,31.9,31.1,30.03,NW,309,17.0,19.0,97,0.00,,,0.00,Wunderground v.1.15,2013-01-02 09:43:00,
2013-01-02 03:48:00,31.9,31.1,30.04,WNW,296,15.0,19.0,97,0.00,,,0.00,Wunderground v.1.15,2013-01-02 09:48:00,
2013-01-02 03:53:00,31.8,31.0,30.05,SW,224,16.0,20.0,97,0.00,,,0.00,Wunderground v.1.15,2013-01-02 09:53:00,
2013-01-02 03:58:00,31.8,31.0,30.04,SW,232,10.0,20.0,97,0.00,,,0.00,Wunderground v.1.15,2013-01-02 09:58:00,
2013-01-02 04:03:00,31.8,31.0,30.05,NW,304,18.0,20.0,97,0.00,,,0.00,Wunderground v.1.15,2013-01-02 10:03:00,
2013-01-02 04:08:00,31.8,31.0,30.05,NW,304,25.0,25.0,97,0.00,,,0.00,Wunderground v.1.15,2013-01-02 10:08:00,
2013-01-02 04:13:00,31.7,30.9,30.05,WNW,290,6.0,21.0,97,0.00,,,0.00,Wunderground v.1.15,2013-01-02 10:13:00,
2013-01-02 04:18:00,31.6,30.8,30.05,West,281,9.0,21.0,97,0.00,,,0.00,Wunderground v.1.15,2013-01-02 10:18:00,
2013-01-02 04:23:00,31.6,30.8,30.05,NNW,329,13.0,20.0,97,0.00,,,0.00,Wunderground v.1.15,2013-01-02 10:23:00,
2013-01-02 04:28:00,31.6,30.8,30.05,South,173,4.0,20.0,97,0.00,,,0.00,Wunderground v.1.15,2013-01-02 10:28:00,
2013-01-02 04:33:00,31.5,30.7,30.05,NW,311,14.0,21.0,97,0.00,,,0.00,Wunderground v.1.15,2013-01-02 10:33:00,
2013-01-02 04:38:00,31.5,30.7,30.06,WSW,244,3.0,21.0,97,0.00,,,0.00,Wunderground v.1.15,2013-01-02 10:38:00,
2013-01-02 04:43:00,31.4,30.6,30.06,NW,304,13.0,21.0,97,0.00,,,0.00,Wunderground v.1.15,2013-01-02 10:43:00,
2013-01-02 04:48:00,31.5,30.7,30.06,WNW,301,14.0,22.0,97,0.00,,,0.00,Wunderground v.1.15,2013-01-02 10:48:00,
2013-01-02 04:53:00,31.4,30.6,30.06,WNW,301,12.0,18.0,97,0.00,,,0.00,Wunderground v.1.15,2013-01-02 10:53:00,
2013-01-02 04:58:00,31.5,30.7,30.06,NW,304,13.0,18.0,97,0.00,,,0.00,Wunderground v.1.15,2013-01-02 10:58:00,
2013-01-02 05:03:00,31.8,31.0,30.07,NW,316,14.0,14.0,97,0.00,,,0.00,Wunderground v.1.15,2013-01-02 11:03:00,
2013-01-02 05:08:00,31.6,30.8,30.07,WNW,292,19.0,19.0,97,0.00,,,0.00,Wunderground v.1.15,2013-01-02 11:08:00,
2013-01-02 05:13:00,31.5,30.7,30.08,WNW,298,13.0,17.0,97,0.00,,,0.00,Wunderground v.1.15,2013-01-02 11:13:00,
2013-01-02 05:18:00,31.5,30.7,30.07,NW,304,8.0,17.0,97,0.00,,,0.00,Wunderground v.1.15,2013-01-02 11:18:00,
2013-01-02 05:23:00,31.5,30.7,30.08,NW,304,12.0,19.0,97,0.00,,,0.00,Wunderground v.1.15,2013-01-02 11:23:00,
2013-01-02 05:28:00,31.5,30.7,30.08,NW,304,9.0,19.0,97,0.00,,,0.00,Wunderground v.1.15,2013-01-02 11:28:00,
2013-01-02 05:34:00,31.5,30.7,30.08,NW,304,16.0,18.0,97,0.00,,,0.00,Wunderground v.1.15,2013-01-02 11:34:00,
2013-01-02 05:39:00,31.4,30.6,30.08,NW,304,14.0,18.0,97,0.00,,,0.00,Wunderground v.1.15,2013-01-02 11:39:00,
2013-01-02 05:44:00,31.3,30.5,30.07,NW,304,19.0,19.0,97,0.00,,,0.00,Wunderground v.1.15,2013-01-02 11:44:00,
2013-01-02 05:49:00,31.2,30.4,30.07,NW,304,12.0,20.0,97,0.00,,,0.00,Wunderground v.1.15,2013-01-02 11:49:00,
2013-01-02 05:54:00,31.1,30.3,30.08,NW,304,12.0,19.0,97,0.00,,,0.01,Wunderground v.1.15,2013-01-02 11:54:00,
2013-01-02 05:59:00,31.0,30.2,30.08,NW,304,15.0,22.0,97,0.00,,,0.01,Wunderground v.1.15,2013-01-02 11:59:00,
2013-01-02 06:04:00,31.0,30.2,30.08,NW,304,15.0,19.0,97,0.00,,,0.01,Wunderground v.1.15,2013-01-02 12:04:00,
2013-01-02 06:09:00,31.0,30.2,30.08,NW,304,11.0,22.0,97,0.00,,,0.01,Wunderground v.1.15,2013-01-02 12:09:00,
2013-01-02 06:14:00,30.9,30.1,30.09,NW,304,10.0,20.0,97,0.00,,,0.01,Wunderground v.1.15,2013-01-02 12:14:00,
2013-01-02 06:19:00,30.9,30.1,30.09,NW,304,10.0,20.0,97,0.00,,,0.01,Wunderground v.1.15,2013-01-02 12:19:00,
2013-01-02 06:24:00,30.8,30.0,30.08,NW,304,7.0,20.0,97,0.00,,,0.01,Wunderground v.1.15,2013-01-02 12:24:00,
2013-01-02 06:29:00,30.8,30.0,30.09,NW,304,16.0,20.0,97,0.00,,,0.01,Wunderground v.1.15,2013-01-02 12:29:00,
2013-01-02 06:34:00,30.8,30.0,30.09,NW,304,16.0,18.0,97,0.00,,,0.01,Wunderground v.1.15,2013-01-02 12:34:00,
2013-01-02 06:39:00,30.7,30.0,30.09,NW,304,14.0,19.0,97,0.00,,,0.01,Wunderground v.1.15,2013-01-02 12:39:00,
2013-01-02 06:44:00,30.6,29.9,30.09,NW,304,4.0,21.0,97,0.00,,,0.01,Wunderground v.1.15,2013-01-02 12:44:00,
2013-01-02 06:49:00,30.6,29.9,30.09,NW,304,13.0,21.0,97,0.00,,,0.01,Wunderground v.1.15,2013-01-02 12:49:00,
2013-01-02 06:54:00,30.6,29.9,30.09,NW,304,16.0,18.0,97,0.00,,,0.01,Wunderground v.1.15,2013-01-02 12:54:00,
2013-01-02 06:59:00,30.5,29.8,30.10,NW,304,5.0,18.0,97,0.00,,,0.01,Wunderground v.1.15,2013-01-02 12:59:00,
2013-01-02 07:04:00,30.5,29.8,30.10,NW,304,4.0,15.0,97,0.00,,,0.01,Wunderground v.1.15,2013-01-02 13:04:00,
2013-01-02 07:09:00,30.5,29.8,30.10,NW,304,8.0,15.0,97,0.00,,,0.01,Wunderground v.1.15,2013-01-02 13:09:00,
2013-01-02 07:14:00,30.6,29.9,30.10,NW,304,10.0,11.0,97,0.00,,,0.01,Wunderground v.1.15,2013-01-02 13:14:00,
2013-01-02 07:19:00,30.6,29.9,30.11,NW,304,13.0,15.0,97,0.00,,,0.01,Wunderground v.1.15,2013-01-02 13:19:00,
2013-01-02 07:24:00,30.5,29.8,30.10,NW,304,9.0,15.0,97,0.00,,,0.01,Wunderground v.1.15,2013-01-02 13:24:00,
2013-01-02 07:29:00,30.4,29.7,30.10,NW,304,6.0,15.0,97,0.00,,,0.01,Wunderground v.1.15,2013-01-02 13:29:00,
2013-01-02 07:34:00,30.3,29.6,30.10,NW,304,10.0,16.0,97,0.00,,,0.01,Wunderground v.1.15,2013-01-02 13:34:00,
2013-01-02 07:39:00,30.4,29.7,30.10,NW,304,7.0,16.0,97,0.00,,,0.01,Wunderground v.1.15,2013-01-02 13:39:00,
2013-01-02 07:44:00,30.5,29.8,30.10,NW,304,4.0,14.0,97,0.00,,,0.01,Wunderground v.1.15,2013-01-02 13:44:00,
2013-01-02 07:49:00,30.4,29.7,30.10,NW,304,11.0,15.0,97,0.00,,,0.01,Wunderground v.1.15,2013-01-02 13:49:00,
2013-01-02 07:54:00,30.3,29.6,30.12,NW,304,5.0,12.0,97,0.00,,,0.01,Wunderground v.1.15,2013-01-02 13:54:00,
2013-01-02 07:59:00,30.4,29.7,30.12,NW,304,1.0,12.0,97,0.00,,,0.01,Wunderground v.1.15,2013-01-02 13:59:00,
2013-01-02 08:04:00,30.5,29.8,30.11,NW,304,9.0,10.0,97,0.00,,,0.01,Wunderground v.1.15,2013-01-02 14:04:00,
2013-01-02 08:09:00,30.5,29.8,30.11,NW,304,4.0,10.0,97,0.00,,,0.01,Wunderground v.1.15,2013-01-02 14:09:00,
2013-01-02 08:14:00,30.5,29.8,30.10,NW,304,2.0,12.0,97,0.00,,,0.01,Wunderground v.1.15,2013-01-02 14:14:00,
2013-01-02 08:19:00,30.4,29.7,30.11,NW,304,5.0,13.0,97,0.00,,,0.01,Wunderground v.1.15,2013-01-02 14:19:00,
2013-01-02 08:24:00,30.5,29.8,30.11,NW,304,0.0,9.0,97,0.00,,,0.01,Wunderground v.1.15,2013-01-02 14:24:00,
2013-01-02 08:29:00,30.6,29.9,30.11,NW,304,2.0,9.0,97,0.00,,,0.01,Wunderground v.1.15,2013-01-02 14:29:00,
2013-01-02 08:34:00,30.6,29.9,30.13,NW,304,10.0,11.0,97,0.00,,,0.01,Wunderground v.1.15,2013-01-02 14:34:00,
2013-01-02 08:40:00,30.5,29.8,30.12,NW,304,6.0,12.0,97,0.00,,,0.01,Wunderground v.1.15,2013-01-02 14:40:00,
2013-01-02 08:44:00,30.4,29.7,30.14,NW,304,7.0,9.0,97,0.00,,,0.01,Wunderground v.1.15,2013-01-02 14:44:00,
2013-01-02 08:50:00,30.5,29.8,30.13,NW,304,9.0,11.0,97,0.00,,,0.01,Wunderground v.1.15,2013-01-02 14:50:00,
2013-01-02 08:55:00,30.4,29.7,30.13,NW,304,0.0,11.0,97,0.00,,,0.01,Wunderground v.1.15,2013-01-02 14:55:00,
2013-01-02 09:00:00,30.5,29.8,30.14,NW,304,0.0,11.0,97,0.00,,,0.01,Wunderground v.1.15,2013-01-02 15:00:00,
2013-01-02 09:05:00,30.5,29.8,30.13,NW,304,0.0,1.0,97,0.00,,,0.01,Wunderground v.1.15,2013-01-02 15:05:00,
2013-01-02 09:10:00,30.6,29.9,30.14,NW,304,0.0,0.0,97,0.00,,,0.01,Wunderground v.1.15,2013-01-02 15:10:00,
2013-01-02 09:15:00,30.6,29.9,30.14,NW,304,0.0,0.0,97,0.00,,,0.01,Wunderground v.1.15,2013-01-02 15:15:00,
2013-01-02 09:20:00,30.7,30.0,30.14,NW,304,0.0,0.0,97,0.00,,,0.01,Wunderground v.1.15,2013-01-02 15:20:00,
2013-01-02 09:25:00,30.8,30.0,30.15,NW,304,0.0,0.0,97,0.00,,,0.01,Wunderground v.1.15,2013-01-02 15:25:00,
2013-01-02 09:30:00,30.8,30.0,30.15,NW,304,0.0,0.0,97,0.00,,,0.01,Wunderground v.1.15,2013-01-02 15:30:00,
2013-01-02 09:35:00,30.8,30.0,30.15,NW,304,0.0,0.0,97,0.00,,,0.01,Wunderground v.1.15,2013-01-02 15:35:00,
2013-01-02 09:40:00,30.9,30.1,30.16,NW,304,9.0,10.0,97,0.00,,,0.01,Wunderground v.1.15,2013-01-02 15:40:00,
2013-01-02 09:45:00,30.8,30.0,30.15,NW,304,10.0,10.0,97,0.00,,,0.01,Wunderground v.1.15,2013-01-02 15:45:00,
2013-01-02 09:50:00,30.9,30.1,30.17,NW,304,9.0,9.0,97,0.00,,,0.01,Wunderground v.1.15,2013-01-02 15:50:00,
2013-01-02 09:55:00,30.9,30.1,30.16,NW,304,3.0,10.0,97,0.00,,,0.01,Wunderground v.1.15,2013-01-02 15:55:00,
2013-01-02 10:01:00,30.8,30.0,30.16,NW,304,3.0,7.0,97,0.00,,,0.01,Wunderground v.1.15,2013-01-02 16:01:00,
2013-01-02 10:06:00,30.9,30.1,30.15,NW,304,1.0,8.0,97,0.00,,,0.01,Wunderground v.1.15,2013-01-02 16:06:00,
2013-01-02 10:11:00,31.0,30.2,30.15,NW,304,2.0,3.0,97,0.00,,,0.01,Wunderground v.1.15,2013-01-02 16:11:00,
2013-01-02 10:16:00,31.0,30.2,30.16,NW,304,0.0,6.0,97,0.00,,,0.01,Wunderground v.1.15,2013-01-02 16:16:00,
2013-01-02 10:21:00,30.9,30.1,30.16,NW,304,8.0,10.0,97,0.00,,,0.01,Wunderground v.1.15,2013-01-02 16:21:00,
2013-01-02 10:26:00,30.8,30.0,30.15,NW,304,6.0,10.0,97,0.00,,,0.01,Wunderground v.1.15,2013-01-02 16:26:00,
2013-01-02 10:31:00,30.8,30.0,30.15,NW,304,3.0,6.0,97,0.00,,,0.01,Wunderground v.1.15,2013-01-02 16:31:00,
2013-01-02 10:36:00,30.8,30.0,30.15,NW,304,0.0,7.0,97,0.00,,,0.01,Wunderground v.1.15,2013-01-02 16:36:00,
2013-01-02 10:41:00,30.9,30.1,30.15,NW,304,6.0,8.0,97,0.00,,,0.01,Wunderground v.1.15,2013-01-02 16:41:00,
2013-01-02 10:46:00,30.9,30.1,30.15,NW,304,7.0,8.0,97,0.00,,,0.01,Wunderground v.1.15,2013-01-02 16:46:00,
2013-01-02 10:51:00,30.9,30.1,30.15,NW,304,6.0,6.0,97,0.00,,,0.01,Wunderground v.1.15,2013-01-02 16:51:00,
2013-01-02 10:56:00,31.0,30.2,30.15,NW,304,0.0,9.0,97,0.00,,,0.01,Wunderground v.1.15,2013-01-02 16:56:00,
2013-01-02 11:01:00,31.0,30.2,30.14,NW,304,6.0,6.0,97,0.00,,,0.01,Wunderground v.1.15,2013-01-02 17:01:00,
2013-01-02 11:06:00,31.0,30.2,30.14,NW,304,5.0,9.0,97,0.00,,,0.01,Wunderground v.1.15,2013-01-02 17:06:00,
2013-01-02 11:11:00,31.0,30.2,30.14,NW,304,5.0,6.0,97,0.00,,,0.01,Wunderground v.1.15,2013-01-02 17:11:00,
2013-01-02 11:16:00,31.0,30.2,30.13,NW,304,0.0,7.0,97,0.00,,,0.01,Wunderground v.1.15,2013-01-02 17:16:00,
2013-01-02 11:21:00,31.1,30.3,30.13,NW,304,0.0,2.0,97,0.00,,,0.01,Wunderground v.1.15,2013-01-02 17:21:00,
2013-01-02 11:26:00,31.1,30.3,30.14,NW,304,0.0,2.0,97,0.00,,,0.01,Wunderground v.1.15,2013-01-02 17:26:00,
2013-01-02 11:31:00,31.1,30.3,30.14,NW,304,0.0,0.0,97,0.00,,,0.01,Wunderground v.1.15,2013-01-02 17:31:00,
2013-01-02 11:36:00,31.2,30.4,30.13,NW,304,0.0,0.0,97,0.00,,,0.01,Wunderground v.1.15,2013-01-02 17:36:00,
2013-01-02 11:42:00,31.2,30.4,30.12,NW,304,0.0,0.0,97,0.00,,,0.01,Wunderground v.1.15,2013-01-02 17:42:00,
2013-01-02 11:47:00,31.1,30.3,30.12,NW,304,0.0,0.0,97,0.00,,,0.01,Wunderground v.1.15,2013-01-02 17:47:00,
2013-01-02 11:52:00,31.1,30.3,30.13,NW,304,0.0,0.0,97,0.00,,,0.01,Wunderground v.1.15,2013-01-02 17:52:00,
2013-01-02 11:57:00,31.1,30.3,30.12,NW,304,0.0,0.0,97,0.00,,,0.01,Wunderground v.1.15,2013-01-02 17:57:00,
2013-01-02 12:02:00,31.2,30.4,30.12,NW,304,0.0,0.0,97,0.00,,,0.01,Wunderground v.1.15,2013-01-02 18:02:00,
2013-01-02 12:07:00,31.3,30.5,30.13,NW,304,0.0,0.0,97,0.00,,,0.01,Wunderground v.1.15,2013-01-02 18:07:00,
2013-01-02 12:12:00,31.4,30.6,30.13,NW,304,0.0,0.0,97,0.00,,,0.01,Wunderground v.1.15,2013-01-02 18:12:00,
2013-01-02 12:17:00,31.2,30.4,30.12,NW,304,0.0,0.0,97,0.00,,,0.01,Wunderground v.1.15,2013-01-02 18:17:00,
2013-01-02 12:22:00,31.1,30.3,30.13,NW,304,0.0,0.0,97,0.00,,,0.01,Wunderground v.1.15,2013-01-02 18:22:00,
2013-01-02 12:27:00,31.1,30.3,30.13,NW,304,0.0,0.0,97,0.00,,,0.01,Wunderground v.1.15,2013-01-02 18:27:00,
2013-01-02 12:32:00,31.1,30.3,30.12,NW,304,0.0,0.0,97,0.00,,,0.01,Wunderground v.1.15,2013-01-02 18:32:00,
2013-01-02 12:37:00,31.2,30.4,30.12,NW,304,0.0,0.0,97,0.00,,,0.01,Wunderground v.1.15,2013-01-02 18:37:00,
2013-01-02 12:42:00,31.1,30.3,30.11,NW,304,0.0,0.0,97,0.00,,,0.01,Wunderground v.1.15,2013-01-02 18:42:00,
2013-01-02 12:47:00,31.1,30.3,30.11,NW,304,0.0,0.0,97,0.00,,,0.01,Wunderground v.1.15,2013-01-02 18:47:00,
2013-01-02 12:52:00,31.0,30.2,30.11,NW,304,0.0,0.0,97,0.00,,,0.01,Wunderground v.1.15,2013-01-02 18:52:00,
2013-01-02 12:57:00,31.1,30.3,30.11,NW,304,0.0,0.0,97,0.00,,,0.01,Wunderground v.1.15,2013-01-02 18:57:00,
2013-01-02 13:02:00,31.0,30.2,30.12,NW,304,0.0,0.0,97,0.00,,,0.01,Wunderground v.1.15,2013-01-02 19:02:00,
2013-01-02 13:07:00,30.9,30.1,30.12,NW,304,0.0,0.0,97,0.00,,,0.01,Wunderground v.1.15,2013-01-02 19:07:00,
2013-01-02 13:12:00,31.1,30.3,30.12,NW,304,0.0,0.0,97,0.00,,,0.01,Wunderground v.1.15,2013-01-02 19:12:00,
2013-01-02 13:17:00,31.2,30.4,30.12,NW,304,0.0,0.0,97,0.00,,,0.01,Wunderground v.1.15,2013-01-02 19:17:00,
2013-01-02 13:22:00,31.1,30.3,30.12,NW,304,0.0,0.0,97,0.00,,,0.01,Wunderground v.1.15,2013-01-02 19:22:00,
2013-01-02 13:27:00,31.0,30.2,30.12,NW,304,0.0,0.0,97,0.00,,,0.01,Wunderground v.1.15,2013-01-02 19:27:00,
2013-01-02 13:32:00,31.1,30.3,30.12,NW,304,0.0,0.0,97,0.00,,,0.01,Wunderground v.1.15,2013-01-02 19:32:00,
2013-01-02 13:37:00,31.1,30.3,30.12,NW,304,0.0,0.0,97,0.00,,,0.01,Wunderground v.1.15,2013-01-02 19:37:00,
2013-01-02 13:42:00,31.0,30.2,30.12,NW,304,0.0,0.0,97,0.00,,,0.01,Wunderground v.1.15,2013-01-02 19:42:00,
2013-01-02 13:47:00,31.0,30.2,30.12,NW,304,0.0,0.0,97,0.00,,,0.01,Wunderground v.1.15,2013-01-02 19:47:00,
2013-01-02 13:52:00,31.0,30.2,30.11,NW,304,0.0,0.0,97,0.00,,,0.01,Wunderground v.1.15,2013-01-02 19:52:00,
2013-01-02 13:57:00,31.1,30.3,30.12,NW,304,0.0,0.0,97,0.00,,,0.01,Wunderground v.1.15,2013-01-02 19:57:00,
2013-01-02 14:02:00,31.1,30.3,30.12,NW,304,0.0,0.0,97,0.00,,,0.01,Wunderground v.1.15,2013-01-02 20:02:00,
2013-01-02 14:07:00,31.2,30.4,30.11,NW,304,0.0,0.0,97,0.00,,,0.01,Wunderground v.1.15,2013-01-02 20:07:00,
2013-01-02 14:12:00,31.2,30.4,30.12,NW,304,0.0,0.0,97,0.00,,,0.01,Wunderground v.1.15,2013-01-02 20:12:00,
2013-01-02 14:17:00,31.2,30.4,30.12,NW,304,0.0,0.0,97,0.00,,,0.01,Wunderground v.1.15,2013-01-02 20:17:00,
2013-01-02 14:22:00,31.1,30.3,30.11,NW,304,0.0,0.0,97,0.00,,,0.01,Wunderground v.1.15,2013-01-02 20:22:00,
2013-01-02 14:27:00,30.9,30.1,30.12,NW,304,0.0,0.0,97,0.00,,,0.01,Wunderground v.1.15,2013-01-02 20:27:00,
2013-01-02 14:32:00,31.0,30.2,30.12,NW,304,0.0,0.0,97,0.00,,,0.01,Wunderground v.1.15,2013-01-02 20:32:00,
2013-01-02 14:37:00,31.0,30.2,30.12,NW,304,0.0,0.0,97,0.00,,,0.01,Wunderground v.1.15,2013-01-02 20:37:00,
2013-01-02 14:42:00,30.8,30.0,30.12,NW,304,0.0,0.0,97,0.00,,,0.01,Wunderground v.1.15,2013-01-02 20:42:00,
2013-01-02 14:47:00,30.7,30.0,30.11,NW,304,0.0,0.0,97,0.00,,,0.01,Wunderground v.1.15,2013-01-02 20:47:00,
2013-01-02 14:52:00,30.7,30.0,30.11,NW,304,0.0,0.0,97,0.00,,,0.01,Wunderground v.1.15,2013-01-02 20:52:00,
2013-01-02 14:57:00,30.7,30.0,30.12,NW,304,0.0,0.0,97,0.00,,,0.01,Wunderground v.1.15,2013-01-02 20:57:00,
2013-01-02 15:02:00,30.8,30.0,30.12,NW,304,0.0,0.0,97,0.00,,,0.01,Wunderground v.1.15,2013-01-02 21:02:00,
2013-01-02 15:07:00,30.8,30.0,30.13,NW,304,0.0,0.0,97,0.00,,,0.01,Wunderground v.1.15,2013-01-02 21:07:00,
2013-01-02 15:12:00,30.9,30.1,30.13,NW,304,0.0,0.0,97,0.00,,,0.01,Wunderground v.1.15,2013-01-02 21:12:00,
2013-01-02 15:17:00,30.9,30.1,30.14,NW,304,0.0,0.0,97,0.00,,,0.01,Wunderground v.1.15,2013-01-02 21:17:00,
2013-01-02 15:22:00,30.9,30.1,30.14,NW,304,0.0,0.0,97,0.00,,,0.01,Wunderground v.1.15,2013-01-02 21:22:00,
2013-01-02 15:27:00,30.9,30.1,30.14,NW,304,0.0,0.0,97,0.00,,,0.01,Wunderground v.1.15,2013-01-02 21:27:00,
2013-01-02 15:32:00,30.9,30.1,30.14,NW,304,0.0,0.0,97,0.00,,,0.01,Wunderground v.1.15,2013-01-02 21:32:00,
2013-01-02 15:37:00,31.0,30.2,30.14,NW,304,0.0,0.0,97,0.00,,,0.01,Wunderground v.1.15,2013-01-02 21:37:00,
2013-01-02 15:43:00,31.0,30.2,30.15,NW,304,0.0,0.0,97,0.00,,,0.01,Wunderground v.1.15,2013-01-02 21:43:00,
2013-01-02 15:48:00,30.9,30.1,30.16,NW,304,0.0,0.0,97,0.00,,,0.01,Wunderground v.1.15,2013-01-02 21:48:00,
2013-01-02 15:53:00,30.9,30.1,30.16,NW,304,0.0,0.0,97,0.00,,,0.01,Wunderground v.1.15,2013-01-02 21:53:00,
2013-01-02 15:58:00,30.9,30.1,30.16,NW,304,0.0,0.0,97,0.00,,,0.01,Wunderground v.1.15,2013-01-02 21:58:00,
2013-01-02 16:03:00,31.0,30.2,30.16,NW,304,0.0,0.0,97,0.00,,,0.01,Wunderground v.1.15,2013-01-02 22:03:00,
2013-01-02 16:08:00,30.9,30.1,30.15,NW,304,0.0,0.0,97,0.00,,,0.01,Wunderground v.1.15,2013-01-02 22:08:00,
2013-01-02 16:13:00,30.9,30.1,30.15,NW,304,0.0,0.0,97,0.00,,,0.01,Wunderground v.1.15,2013-01-02 22:13:00,
2013-01-02 16:18:00,31.0,30.2,30.15,NW,304,0.0,0.0,97,0.00,,,0.01,Wunderground v.1.15,2013-01-02 22:18:00,
2013-01-02 16:23:00,31.0,30.2,30.15,NW,304,0.0,0.0,97,0.00,,,0.01,Wunderground v.1.15,2013-01-02 22:23:00,
2013-01-02 16:28:00,31.0,30.2,30.15,NW,304,0.0,0.0,97,0.00,,,0.01,Wunderground v.1.15,2013-01-02 22:28:00,
2013-01-02 16:33:00,31.0,30.2,30.15,NW,304,0.0,0.0,97,0.00,,,0.01,Wunderground v.1.15,2013-01-02 22:33:00,
2013-01-02 16:38:00,31.0,30.2,30.15,NW,304,0.0,0.0,97,0.00,,,0.01,Wunderground v.1.15,2013-01-02 22:38:00,
2013-01-02 16:43:00,31.0,30.2,30.15,NW,304,0.0,0.0,97,0.00,,,0.01,Wunderground v.1.15,2013-01-02 22:43:00,
2013-01-02 16:48:00,31.0,30.2,30.15,NW,304,0.0,0.0,97,0.00,,,0.01,Wunderground v.1.15,2013-01-02 22:48:00,
2013-01-02 16:53:00,31.0,30.2,30.15,NW,304,0.0,0.0,97,0.00,,,0.01,Wunderground v.1.15,2013-01-02 22:53:00,
2013-01-02 16:58:00,31.0,30.2,30.16,NW,304,0.0,0.0,97,0.00,,,0.01,Wunderground v.1.15,2013-01-02 22:58:00,
2013-01-02 17:03:00,31.0,30.2,30.15,NW,304,0.0,0.0,97,0.00,,,0.01,Wunderground v.1.15,2013-01-02 23:03:00,
2013-01-02 17:08:00,31.0,30.2,30.16,NW,304,0.0,0.0,97,0.00,,,0.01,Wunderground v.1.15,2013-01-02 23:08:00,
2013-01-02 17:13:00,30.9,30.1,30.15,NW,304,0.0,0.0,97,0.00,,,0.01,Wunderground v.1.15,2013-01-02 23:13:00,
2013-01-02 17:18:00,30.9,30.1,30.15,NW,304,0.0,0.0,97,0.00,,,0.01,Wunderground v.1.15,2013-01-02 23:18:00,
2013-01-02 17:23:00,30.8,30.0,30.15,NW,304,0.0,0.0,97,0.00,,,0.01,Wunderground v.1.15,2013-01-02 23:23:00,
2013-01-02 17:28:00,30.8,30.0,30.16,NW,304,0.0,0.0,97,0.00,,,0.01,Wunderground v.1.15,2013-01-02 23:28:00,
2013-01-02 17:33:00,30.8,30.0,30.15,NW,304,0.0,0.0,97,0.00,,,0.01,Wunderground v.1.15,2013-01-02 23:33:00,
2013-01-02 17:38:00,30.7,30.0,30.15,NW,304,0.0,0.0,97,0.00,,,0.01,Wunderground v.1.15,2013-01-02 23:38:00,
2013-01-02 17:43:00,30.6,29.9,30.15,NW,304,0.0,0.0,97,0.00,,,0.01,Wunderground v.1.15,2013-01-02 23:43:00,
2013-01-02 17:48:00,30.6,29.9,30.16,NW,304,0.0,0.0,97,0.00,,,0.01,Wunderground v.1.15,2013-01-02 23:48:00,
2013-01-02 17:53:00,30.6,29.9,30.15,NW,304,0.0,0.0,97,0.00,,,0.01,Wunderground v.1.15,2013-01-02 23:53:00,
2013-01-02 17:58:00,30.6,29.9,30.16,NW,304,0.0,0.0,97,0.00,,,0.01,Wunderground v.1.15,2013-01-02 23:58:00,
2013-01-02 18:03:00,30.6,29.9,30.17,NW,304,0.0,0.0,97,0.00,,,0.01,Wunderground v.1.15,2013-01-03 00:03:00,
2013-01-02 18:08:00,30.7,30.0,30.16,NW,304,0.0,0.0,97,0.00,,,0.01,Wunderground v.1.15,2013-01-03 00:08:00,
2013-01-02 18:13:00,30.7,30.0,30.16,NW,304,0.0,0.0,97,0.00,,,0.01,Wunderground v.1.15,2013-01-03 00:13:00,
2013-01-02 18:18:00,30.7,30.0,30.17,NW,304,0.0,0.0,97,0.00,,,0.01,Wunderground v.1.15,2013-01-03 00:18:00,
2013-01-02 18:23:00,30.7,30.0,30.18,NW,304,0.0,0.0,97,0.00,,,0.01,Wunderground v.1.15,2013-01-03 00:23:00,
2013-01-02 18:28:00,30.7,30.0,30.17,NW,304,0.0,0.0,97,0.00,,,0.01,Wunderground v.1.15,2013-01-03 00:28:00,
2013-01-02 18:33:00,30.6,29.9,30.17,NW,304,0.0,0.0,97,0.00,,,0.01,Wunderground v.1.15,2013-01-03 00:33:00,
2013-01-02 18:38:00,30.6,29.9,30.17,NW,304,0.0,0.0,97,0.00,,,0.01,Wunderground v.1.15,2013-01-03 00:38:00,
2013-01-02 18:43:00,30.6,29.9,30.17,NW,304,0.0,0.0,97,0.00,,,0.01,Wunderground v.1.15,2013-01-03 00:43:00,
2013-01-02 18:48:00,30.6,29.9,30.17,NW,304,0.0,0.0,97,0.00,,,0.01,Wunderground v.1.15,2013-01-03 00:48:00,
2013-01-02 18:53:00,30.6,29.9,30.17,NW,304,0.0,0.0,97,0.00,,,0.01,Wunderground v.1.15,2013-01-03 00:53:00,
2013-01-02 18:58:00,30.6,29.9,30.17,NW,304,0.0,0.0,97,0.00,,,0.01,Wunderground v.1.15,2013-01-03 00:58:00,
2013-01-02 19:03:00,30.6,29.9,30.17,NW,304,0.0,0.0,97,0.00,,,0.01,Wunderground v.1.15,2013-01-03 01:03:00,
2013-01-02 19:08:00,30.6,29.9,30.17,NW,304,0.0,0.0,97,0.00,,,0.01,Wunderground v.1.15,2013-01-03 01:08:00,
2013-01-02 19:13:00,30.5,29.8,30.17,NW,304,0.0,0.0,97,0.00,,,0.01,Wunderground v.1.15,2013-01-03 01:13:00,
2013-01-02 19:18:00,30.6,29.9,30.18,NW,304,0.0,0.0,97,0.00,,,0.01,Wunderground v.1.15,2013-01-03 01:18:00,
2013-01-02 19:23:00,30.6,29.9,30.18,NW,304,0.0,0.0,97,0.00,,,0.01,Wunderground v.1.15,2013-01-03 01:23:00,
2013-01-02 19:28:00,30.6,29.9,30.18,NW,304,0.0,0.0,97,0.00,,,0.01,Wunderground v.1.15,2013-01-03 01:28:00,
2013-01-02 19:33:00,30.6,29.9,30.18,NW,304,0.0,0.0,97,0.00,,,0.01,Wunderground v.1.15,2013-01-03 01:33:00,
2013-01-02 19:39:00,30.6,29.9,30.18,NW,304,0.0,0.0,97,0.00,,,0.01,Wunderground v.1.15,2013-01-03 01:39:00,
2013-01-02 19:44:00,30.5,29.8,30.19,NW,304,0.0,0.0,97,0.00,,,0.01,Wunderground v.1.15,2013-01-03 01:44:00,
2013-01-02 19:49:00,30.5,29.8,30.19,NW,304,0.0,0.0,97,0.00,,,0.01,Wunderground v.1.15,2013-01-03 01:49:00,
2013-01-02 19:54:00,30.5,29.8,30.20,NW,304,0.0,0.0,97,0.00,,,0.01,Wunderground v.1.15,2013-01-03 01:54:00,
2013-01-02 19:59:00,30.5,29.8,30.20,NW,304,0.0,0.0,97,0.00,,,0.01,Wunderground v.1.15,2013-01-03 01:59:00,
2013-01-02 20:04:00,30.4,29.7,30.17,NW,304,0.0,0.0,97,0.00,,,0.01,Wunderground v.1.15,2013-01-03 02:04:00,
2013-01-02 20:09:00,30.3,29.6,30.18,NW,304,0.0,0.0,97,0.00,,,0.01,Wunderground v.1.15,2013-01-03 02:09:00,
2013-01-02 20:14:00,30.4,29.7,30.19,NW,304,0.0,0.0,97,0.00,,,0.01,Wunderground v.1.15,2013-01-03 02:14:00,
2013-01-02 20:19:00,30.4,29.7,30.19,NW,304,0.0,0.0,97,0.00,,,0.01,Wunderground v.1.15,2013-01-03 02:19:00,
2013-01-02 20:24:00,30.3,29.6,30.19,NW,304,0.0,0.0,97,0.00,,,0.01,Wunderground v.1.15,2013-01-03 02:24:00,
2013-01-02 20:29:00,30.2,29.5,30.18,NW,304,0.0,0.0,97,0.00,,,0.01,Wunderground v.1.15,2013-01-03 02:29:00,
2013-01-02 20:34:00,30.1,29.4,30.18,NW,304,0.0,0.0,97,0.00,,,0.01,Wunderground v.1.15,2013-01-03 02:34:00,
2013-01-02 20:39:00,30.1,29.4,30.19,NW,304,0.0,0.0,97,0.00,,,0.01,Wunderground v.1.15,2013-01-03 02:39:00,
2013-01-02 20:44:00,30.1,29.4,30.19,NW,304,0.0,0.0,97,0.00,,,0.01,Wunderground v.1.15,2013-01-03 02:44:00,
2013-01-02 20:49:00,30.1,29.4,30.19,NW,304,0.0,0.0,97,0.00,,,0.01,Wunderground v.1.15,2013-01-03 02:49:00,
2013-01-02 20:54:00,30.0,29.3,30.20,NW,304,0.0,0.0,97,0.00,,,0.01,Wunderground v.1.15,2013-01-03 02:54:00,
2013-01-02 20:59:00,30.1,29.4,30.19,NW,304,0.0,0.0,97,0.00,,,0.01,Wunderground v.1.15,2013-01-03 02:59:00,
2013-01-02 21:04:00,30.1,29.4,30.19,NW,304,0.0,0.0,97,0.00,,,0.01,Wunderground v.1.15,2013-01-03 03:04:00,
2013-01-02 21:09:00,30.0,29.3,30.19,NW,304,0.0,0.0,97,0.00,,,0.01,Wunderground v.1.15,2013-01-03 03:09:00,
2013-01-02 21:14:00,30.1,29.4,30.20,NW,304,0.0,0.0,97,0.00,,,0.01,Wunderground v.1.15,2013-01-03 03:14:00,
2013-01-02 21:20:00,30.1,29.4,30.19,NW,304,0.0,0.0,97,0.00,,,0.01,Wunderground v.1.15,2013-01-03 03:20:00,
2013-01-02 21:25:00,30.1,29.4,30.18,NW,304,0.0,0.0,97,0.00,,,0.01,Wunderground v.1.15,2013-01-03 03:25:00,
2013-01-02 21:31:00,30.1,29.4,30.19,NW,304,0.0,0.0,97,0.00,,,0.01,Wunderground v.1.15,2013-01-03 03:31:00,
2013-01-02 21:37:00,30.2,29.5,30.20,NW,304,0.0,0.0,97,0.00,,,0.01,Wunderground v.1.15,2013-01-03 03:37:00,
2013-01-02 21:42:00,30.2,29.5,30.20,NW,304,0.0,0.0,97,0.00,,,0.01,Wunderground v.1.15,2013-01-03 03:42:00,
2013-01-02 21:47:00,30.3,29.6,30.21,NW,304,0.0,0.0,97,0.00,,,0.01,Wunderground v.1.15,2013-01-03 03:47:00,
2013-01-02 21:52:00,30.2,29.5,30.20,NW,304,0.0,0.0,97,0.00,,,0.01,Wunderground v.1.15,2013-01-03 03:52:00,
2013-01-02 21:57:00,30.1,29.4,30.20,NW,304,0.0,0.0,97,0.00,,,0.01,Wunderground v.1.15,2013-01-03 03:57:00,
2013-01-02 22:02:00,30.0,29.3,30.19,NW,304,0.0,0.0,97,0.00,,,0.01,Wunderground v.1.15,2013-01-03 04:02:00,
2013-01-02 22:07:00,30.0,29.3,30.20,NW,304,0.0,0.0,97,0.00,,,0.01,Wunderground v.1.15,2013-01-03 04:07:00,
2013-01-02 22:12:00,30.0,29.3,30.19,NW,304,0.0,0.0,97,0.00,,,0.01,Wunderground v.1.15,2013-01-03 04:12:00,
2013-01-02 22:17:00,30.1,29.4,30.20,NW,304,0.0,0.0,97,0.00,,,0.01,Wunderground v.1.15,2013-01-03 04:17:00,
2013-01-02 22:22:00,30.1,29.4,30.21,NW,304,0.0,0.0,97,0.00,,,0.01,Wunderground v.1.15,2013-01-03 04:22:00,
2013-01-02 22:27:00,30.1,29.4,30.21,NW,304,0.0,0.0,97,0.00,,,0.01,Wunderground v.1.15,2013-01-03 04:27:00,
2013-01-02 22:32:00,30.1,29.4,30.21,NW,304,0.0,0.0,97,0.00,,,0.01,Wunderground v.1.15,2013-01-03 04:32:00,
2013-01-02 22:37:00,30.1,29.4,30.21,NW,304,0.0,0.0,97,0.00,,,0.01,Wunderground v.1.15,2013-01-03 04:37:00,
2013-01-02 22:43:00,30.0,29.3,30.21,NW,304,0.0,0.0,97,0.00,,,0.01,Wunderground v.1.15,2013-01-03 04:43:00,
2013-01-02 22:48:00,29.9,29.2,30.21,NW,304,0.0,0.0,97,0.00,,,0.01,Wunderground v.1.15,2013-01-03 04:48:00,
2013-01-02 22:53:00,29.8,29.1,30.21,NW,304,0.0,0.0,97,0.00,,,0.01,Wunderground v.1.15,2013-01-03 04:53:00,
2013-01-02 22:58:00,29.8,29.1,30.21,NW,304,0.0,0.0,97,0.00,,,0.01,Wunderground v.1.15,2013-01-03 04:58:00,
2013-01-02 23:00:00,29.7,29.0,30.21,NW,304,0.0,0.0,97,0.00,,,0.01,Wunderground v.1.15,2013-01-03 05:00:00,
2013-01-02 23:02:00,29.7,29.0,30.21,NW,304,0.0,0.0,97,0.00,,,0.01,Wunderground v.1.15,2013-01-03 05:02:00,
2013-01-02 23:03:00,29.7,29.0,30.21,NW,304,0.0,0.0,97,0.00,,,0.01,Wunderground v.1.15,2013-01-03 05:03:00,
2013-01-02 23:08:00,29.7,29.0,30.20,NW,304,0.0,0.0,97,0.00,,,0.01,Wunderground v.1.15,2013-01-03 05:08:00,
2013-01-02 23:13:00,29.7,29.0,30.19,NW,304,0.0,0.0,97,0.00,,,0.01,Wunderground v.1.15,2013-01-03 05:13:00,
2013-01-02 23:18:00,29.7,29.0,30.19,NW,304,0.0,0.0,97,0.00,,,0.01,Wunderground v.1.15,2013-01-03 05:18:00,
2013-01-02 23:23:00,29.6,28.9,30.20,NW,304,0.0,0.0,97,0.00,,,0.01,Wunderground v.1.15,2013-01-03 05:23:00,
2013-01-02 23:28:00,29.7,29.0,30.20,NW,304,0.0,0.0,97,0.00,,,0.01,Wunderground v.1.15,2013-01-03 05:28:00,
2013-01-02 23:34:00,29.6,28.9,30.20,NW,304,0.0,0.0,97,0.00,,,0.01,Wunderground v.1.15,2013-01-03 05:34:00,
2013-01-02 23:39:00,29.5,28.8,30.19,NW,304,0.0,0.0,97,0.00,,,0.01,Wunderground v.1.15,2013-01-03 05:39:00,
2013-01-02 23:44:00,29.5,28.8,30.19,NW,304,0.0,0.0,97,0.00,,,0.01,Wunderground v.1.15,2013-01-03 05:44:00,
2013-01-02 23:49:00,29.4,28.7,30.18,NW,304,0.0,0.0,97,0.00,,,0.01,Wunderground v.1.15,2013-01-03 05:49:00,
2013-01-02 23:54:00,29.4,28.7,30.18,NW,304,0.0,0.0,97,0.00,,,0.01,Wunderground v.1.15,2013-01-03 05:54:00,
2013-01-02 23:59:00,29.4,28.7,30.18,NW,304,0.0,0.0,97,0.00,,,0.01,Wunderground v.1.15,2013-01-03 05:59:00,